createdAt,value
2019-03-06T00:00:39.140Z,100399.37
2019-03-06T00:03:10.900Z,100398.95
2019-03-06T00:05:43.075Z,100403.68
2019-03-06T00:08:15.135Z,100406.28
2019-03-06T00:10:47.013Z,100406.30
2019-03-06T00:13:18.544Z,100408.96
2019-03-06T00:15:50.425Z,100413.77
2019-03-06T00:18:22.333Z,100416.78
2019-03-06T00:20:54.253Z,100416.31
2019-03-06T00:23:26.193Z,100421.13
2019-03-06T00:25:57.982Z,100422.81
2019-03-06T00:28:29.779Z,100425.92
2019-03-06T00:31:01.380Z,100430.67
2019-03-06T00:33:33.006Z,100433.18
2019-03-06T00:36:06.419Z,100436.70
2019-03-06T00:38:38.188Z,100444.86
2019-03-06T00:41:11.314Z,100450.54
2019-03-06T00:43:42.798Z,100452.75
2019-03-06T00:46:14.442Z,100453.21
2019-03-06T00:48:46.097Z,100450.13
2019-03-06T00:51:17.963Z,100452.34
2019-03-06T00:53:49.887Z,100454.13
2019-03-06T00:56:21.449Z,100465.43
2019-03-06T00:58:53.365Z,100463.25
2019-03-06T01:01:25.018Z,100472.45
2019-03-06T01:03:56.827Z,100471.56
2019-03-06T01:06:28.780Z,100468.07
2019-03-06T01:09:00.237Z,100467.66
2019-03-06T01:11:32.367Z,100470.68
2019-03-06T01:14:03.908Z,100460.70
2019-03-06T01:16:35.615Z,100459.75
2019-03-06T01:19:07.699Z,100478.08
2019-03-06T01:21:39.462Z,100466.77
2019-03-06T01:24:11.353Z,100476.77
2019-03-06T01:26:43.122Z,100480.27
2019-03-06T01:29:14.890Z,100480.34
2019-03-06T01:31:46.866Z,100483.37
2019-03-06T01:34:20.243Z,100490.36
2019-03-06T01:36:53.853Z,100489.49
2019-03-06T01:39:40.340Z,100495.61
2019-03-06T01:42:17.015Z,100505.15
2019-03-06T01:44:49.580Z,100500.83
2019-03-06T01:47:21.178Z,100508.25
2019-03-06T01:49:52.615Z,100519.13
2019-03-06T01:52:24.320Z,100526.50
2019-03-06T01:54:56.213Z,100530.83
2019-03-06T01:57:27.707Z,100529.98
2019-03-06T01:59:59.506Z,100522.59
2019-03-06T02:02:31.127Z,100535.69
2019-03-06T02:05:03.046Z,100540.02
2019-03-06T02:07:35.173Z,100538.29
2019-03-06T02:10:07.545Z,100546.06
2019-03-06T02:12:39.405Z,100553.89
2019-03-06T02:15:12.668Z,100555.20
2019-03-06T02:17:44.358Z,100557.38
2019-03-06T02:20:17.079Z,100564.78
2019-03-06T02:22:50.420Z,100566.51
2019-03-06T02:25:22.155Z,100570.02
2019-03-06T02:27:53.843Z,100566.10
2019-03-06T02:30:25.918Z,100573.04
2019-03-06T02:32:57.878Z,100584.30
2019-03-06T02:35:30.613Z,100579.95
2019-03-06T02:38:02.399Z,100580.78
2019-03-06T02:40:33.895Z,100584.27
2019-03-06T02:43:05.452Z,100590.38
2019-03-06T02:45:37.027Z,100596.50
2019-03-06T02:48:08.968Z,100605.17
2019-03-06T02:50:40.677Z,100604.66
2019-03-06T02:53:12.324Z,100600.73
2019-03-06T02:55:43.921Z,100604.09
2019-03-06T02:58:17.464Z,100605.84
2019-03-06T03:00:50.953Z,100602.38
2019-03-06T03:03:40.953Z,100611.52
2019-03-06T03:06:16.946Z,100620.64
2019-03-06T03:08:48.892Z,100631.61
2019-03-06T03:11:20.655Z,100637.16
2019-03-06T03:13:52.525Z,100639.27
2019-03-06T03:16:24.607Z,100625.86
2019-03-06T03:18:56.203Z,100628.05
2019-03-06T03:21:27.859Z,100640.16
2019-03-06T03:23:59.487Z,100630.23
2019-03-06T03:26:31.170Z,100633.67
2019-03-06T03:29:02.895Z,100635.45
2019-03-06T03:31:34.664Z,100648.41
2019-03-06T03:34:06.256Z,100650.20
2019-03-06T03:36:38.084Z,100658.86
2019-03-06T03:39:12.285Z,100665.84
2019-03-06T03:41:43.942Z,100671.90
2019-03-06T03:44:16.604Z,100675.31
2019-03-06T03:46:48.508Z,100674.36
2019-03-06T03:49:20.172Z,100678.77
2019-03-06T03:51:52.268Z,100675.67
2019-03-06T03:54:25.291Z,100683.52
2019-03-06T03:56:57.081Z,100687.05
2019-03-06T03:59:29.110Z,100691.36
2019-03-06T04:02:00.892Z,100695.33
2019-03-06T04:04:32.463Z,100699.64
2019-03-06T04:07:04.164Z,100704.44
2019-03-06T04:09:37.481Z,100710.88
2019-03-06T04:12:09.086Z,100713.88
2019-03-06T04:14:40.820Z,100720.89
2019-03-06T04:17:12.468Z,100732.14
2019-03-06T04:19:44.214Z,100736.09
2019-03-06T04:22:16.247Z,100744.78
2019-03-06T04:24:47.747Z,100744.30
2019-03-06T04:27:19.598Z,100747.41
2019-03-06T04:29:51.330Z,100750.43
2019-03-06T04:32:23.141Z,100754.34
2019-03-06T04:34:54.700Z,100761.31
2019-03-06T04:37:26.488Z,100763.83
2019-03-06T04:39:58.452Z,100766.44
2019-03-06T04:42:30.141Z,100768.06
2019-03-06T04:45:01.622Z,100776.75
2019-03-06T04:47:33.533Z,100772.87
2019-03-06T04:50:05.978Z,100776.84
2019-03-06T04:52:37.532Z,100783.20
2019-03-06T04:55:10.316Z,100786.71
2019-03-06T04:57:42.144Z,100795.91
2019-03-06T05:00:14.125Z,100804.11
2019-03-06T05:02:45.701Z,100802.80
2019-03-06T05:05:17.383Z,100805.45
2019-03-06T05:07:48.938Z,100806.27
2019-03-06T05:10:20.445Z,100817.19
2019-03-06T05:12:51.999Z,100828.42
2019-03-06T05:15:23.770Z,100822.19
2019-03-06T05:18:06.022Z,100824.80
2019-03-06T05:20:37.542Z,100823.45
2019-03-06T05:23:09.410Z,100832.05
2019-03-06T05:25:40.921Z,100829.45
2019-03-06T05:28:12.676Z,100836.23
2019-03-06T05:30:44.343Z,100838.97
2019-03-06T05:33:16.233Z,100842.41
2019-03-06T05:36:31.448Z,100847.09
2019-03-06T05:39:10.434Z,100852.31
2019-03-06T05:41:42.096Z,100853.28
2019-03-06T05:44:14.055Z,100858.04
2019-03-06T05:46:45.673Z,100859.72
2019-03-06T05:49:17.188Z,100868.86
2019-03-06T05:51:48.571Z,100869.62
2019-03-06T05:54:19.970Z,100876.66
2019-03-06T05:56:51.783Z,100884.41
2019-03-06T05:59:23.951Z,100888.20
2019-03-06T06:01:56.094Z,100892.61
2019-03-06T06:04:27.800Z,100895.27
2019-03-06T06:06:59.557Z,100899.00
2019-03-06T06:09:31.409Z,100897.83
2019-03-06T06:12:03.128Z,100904.41
2019-03-06T06:14:34.652Z,100906.55
2019-03-06T06:17:05.943Z,100906.06
2019-03-06T06:19:38.123Z,100911.70
2019-03-06T06:22:17.483Z,100904.75
2019-03-06T06:24:49.331Z,100920.28
2019-03-06T06:27:20.798Z,100922.11
2019-03-06T06:29:52.719Z,100926.44
2019-03-06T06:32:25.058Z,100935.61
2019-03-06T06:34:56.505Z,100941.23
2019-03-06T06:37:28.065Z,100935.89
2019-03-06T06:39:59.938Z,100941.63
2019-03-06T06:42:31.627Z,100938.52
2019-03-06T06:45:03.322Z,100948.14
2019-03-06T06:47:34.850Z,100943.05
2019-03-06T06:50:07.303Z,100947.03
2019-03-06T06:53:29.081Z,100951.83
2019-03-06T06:56:41.477Z,100950.91
2019-03-06T06:59:29.300Z,100963.53
2019-03-06T07:02:34.951Z,100953.47
2019-03-06T07:05:17.641Z,100963.94
2019-03-06T07:07:53.892Z,100972.81
2019-03-06T07:10:43.455Z,100977.41
2019-03-06T07:13:16.792Z,100981.75
2019-03-06T07:15:53.009Z,100991.89
2019-03-06T07:18:32.524Z,100987.14
2019-03-06T07:21:05.756Z,100989.28
2019-03-06T07:23:38.722Z,100996.41
2019-03-06T07:26:12.269Z,100990.47
2019-03-06T07:28:51.725Z,100999.81
2019-03-06T07:31:25.004Z,100997.70
2019-03-06T07:33:58.416Z,101004.63
2019-03-06T07:36:46.594Z,101004.38
2019-03-06T07:39:25.627Z,101010.63
2019-03-06T07:42:04.863Z,101007.66
2019-03-06T07:44:41.113Z,101005.20
2019-03-06T07:47:17.281Z,101003.33
2019-03-06T07:49:51.406Z,100999.56
2019-03-06T07:52:30.461Z,101010.96
2019-03-06T07:55:06.276Z,101016.05
2019-03-06T07:58:14.253Z,101033.92
2019-03-06T08:00:45.822Z,101036.26
2019-03-06T08:03:50.719Z,101034.55
2019-03-06T08:06:22.375Z,101039.36
2019-03-06T08:08:54.413Z,101037.69
2019-03-06T08:11:27.692Z,101043.50
2019-03-06T08:14:00.813Z,101045.72
2019-03-06T08:16:34.395Z,101049.80
2019-03-06T08:19:08.513Z,101046.40
2019-03-06T08:21:44.593Z,101045.48
2019-03-06T08:24:30.749Z,101052.42
2019-03-06T08:27:02.263Z,101048.84
2019-03-06T08:29:34.100Z,101056.98
2019-03-06T08:32:07.321Z,101054.15
2019-03-06T08:34:39.036Z,101064.17
2019-03-06T08:37:10.992Z,101071.22
2019-03-06T08:39:42.653Z,101073.66
2019-03-06T08:42:14.322Z,101075.09
2019-03-06T08:44:46.443Z,101075.92
2019-03-06T08:47:31.651Z,101070.91
2019-03-06T08:50:04.788Z,101079.45
2019-03-06T08:52:42.229Z,101075.06
2019-03-06T08:55:31.828Z,101080.06
2019-03-06T08:58:08.595Z,101074.73
2019-03-06T09:00:51.270Z,101083.58
2019-03-06T09:03:26.724Z,101079.17
2019-03-06T09:06:11.674Z,101086.56
2019-03-06T09:08:50.610Z,101088.16
2019-03-06T09:11:23.863Z,101086.22
2019-03-06T09:13:56.866Z,101091.02
2019-03-06T09:16:39.344Z,101092.33
2019-03-06T09:19:21.972Z,101098.16
2019-03-06T09:22:02.269Z,101094.42
2019-03-06T09:24:51.910Z,101095.83
2019-03-06T09:27:41.324Z,101094.55
2019-03-06T09:30:19.747Z,101092.52
2019-03-06T09:33:00.340Z,101081.28
2019-03-06T09:35:43.236Z,101081.81
2019-03-06T09:38:16.386Z,101080.45
2019-03-06T09:40:49.902Z,101074.40
2019-03-06T09:43:26.097Z,101076.75
2019-03-06T09:45:59.762Z,101077.09
2019-03-06T09:48:35.755Z,101071.75
2019-03-06T09:51:09.072Z,101074.69
2019-03-06T09:53:51.897Z,101081.11
2019-03-06T09:56:25.181Z,101080.94
2019-03-06T09:58:58.414Z,101088.17
2019-03-06T10:01:31.954Z,101080.14
2019-03-06T10:04:05.007Z,101081.23
2019-03-06T10:06:44.350Z,101081.25
2019-03-06T10:09:21.302Z,101078.56
2019-03-06T10:12:09.955Z,101073.38
2019-03-06T10:14:49.144Z,101071.59
2019-03-06T10:17:22.905Z,101066.33
2019-03-06T10:20:02.061Z,101072.88
2019-03-06T10:22:33.795Z,101078.19
2019-03-06T10:25:06.135Z,101080.81
2019-03-06T10:27:38.243Z,101082.11
2019-03-06T10:30:12.714Z,101087.83
2019-03-06T10:32:44.744Z,101083.91
2019-03-06T10:35:17.216Z,101079.40
2019-03-06T10:37:49.816Z,101082.55
2019-03-06T10:40:21.521Z,101074.67
2019-03-06T10:42:53.525Z,101073.81
2019-03-06T10:45:25.199Z,101081.27
2019-03-06T10:47:56.999Z,101072.34
2019-03-06T10:50:31.292Z,101074.69
2019-03-06T10:53:02.688Z,101079.89
2019-03-06T10:55:34.400Z,101069.20
2019-03-06T10:58:06.553Z,101075.55
2019-03-06T11:00:40.441Z,101073.39
2019-03-06T11:03:12.560Z,101076.88
2019-03-06T11:05:44.628Z,101078.54
2019-03-06T11:08:17.353Z,101072.92
2019-03-06T11:10:49.232Z,101072.47
2019-03-06T11:13:21.045Z,101074.27
2019-03-06T11:15:55.973Z,101068.94
2019-03-06T11:18:26.247Z,101067.62
2019-03-06T11:20:57.986Z,101065.03
2019-03-06T11:23:30.518Z,101053.55
2019-03-06T11:26:06.367Z,101054.84
2019-03-06T11:28:38.857Z,101051.88
2019-03-06T11:31:11.738Z,101046.61
2019-03-06T11:33:43.905Z,101036.81
2019-03-06T11:36:15.939Z,101031.86
2019-03-06T11:38:47.677Z,101031.94
2019-03-06T11:41:20.549Z,101031.66
2019-03-06T11:43:52.121Z,101029.52
2019-03-06T11:46:23.933Z,101023.38
2019-03-06T11:48:55.767Z,101012.38
2019-03-06T11:51:27.404Z,101018.08
2019-03-06T11:53:59.046Z,101012.30
2019-03-06T11:56:32.665Z,100997.73
2019-03-06T11:59:04.479Z,100999.11
2019-03-06T12:01:36.086Z,101001.19
2019-03-06T12:04:07.675Z,100999.45
2019-03-06T12:06:39.559Z,100989.55
2019-03-06T12:09:28.664Z,100991.95
2019-03-06T12:12:01.027Z,100976.98
2019-03-06T12:14:33.055Z,100983.55
2019-03-06T12:17:04.814Z,100983.44
2019-03-06T12:19:36.646Z,100975.25
2019-03-06T12:22:08.301Z,100975.84
2019-03-06T12:24:40.014Z,100973.06
2019-03-06T12:27:11.766Z,100984.23
2019-03-06T12:29:43.451Z,100975.14
2019-03-06T12:32:15.416Z,100973.42
2019-03-06T12:34:47.676Z,100968.48
2019-03-06T12:37:19.635Z,100960.27
2019-03-06T12:39:51.386Z,100958.63
2019-03-06T12:42:23.098Z,100958.16
2019-03-06T12:44:55.828Z,100951.52
2019-03-06T12:47:27.410Z,100952.56
2019-03-06T12:50:05.431Z,100950.64
2019-03-06T12:52:33.504Z,100944.50
2019-03-06T12:55:06.079Z,100932.91
2019-03-06T12:57:37.657Z,100934.21
2019-03-06T13:00:18.335Z,100922.83
2019-03-06T13:02:50.345Z,100910.20
2019-03-06T13:05:23.445Z,100903.95
2019-03-06T13:07:55.311Z,100912.22
2019-03-06T13:10:27.113Z,100903.06
2019-03-06T13:12:58.604Z,100903.06
2019-03-06T13:15:30.133Z,100902.72
2019-03-06T13:18:01.830Z,100895.63
2019-03-06T13:20:33.361Z,100891.69
2019-03-06T13:23:06.633Z,100893.08
2019-03-06T13:25:38.360Z,100893.11
2019-03-06T13:28:12.033Z,100900.61
2019-03-06T13:30:43.839Z,100892.72
2019-03-06T13:33:23.058Z,100860.56
2019-03-06T13:35:54.597Z,100883.07
2019-03-06T13:38:26.368Z,100836.73
2019-03-06T13:40:57.802Z,100855.09
2019-03-06T13:43:29.274Z,100872.62
2019-03-06T13:46:01.000Z,100867.31
2019-03-06T13:48:33.043Z,100866.57
2019-03-06T13:51:06.141Z,100868.22
2019-03-06T13:53:37.849Z,100858.75
2019-03-06T13:56:10.148Z,100863.80
2019-03-06T13:58:42.111Z,100863.48
2019-03-06T14:01:14.805Z,100856.77
2019-03-06T14:03:46.889Z,100859.14
2019-03-06T14:06:18.845Z,100853.75
2019-03-06T14:08:50.343Z,100862.05
2019-03-06T14:11:21.931Z,100862.69
2019-03-06T14:13:53.633Z,100856.90
2019-03-06T14:16:25.659Z,100847.27
2019-03-06T14:18:57.291Z,100847.14
2019-03-06T14:21:28.960Z,100839.93
2019-03-06T14:24:00.550Z,100841.13
2019-03-06T14:26:32.459Z,100842.88
2019-03-06T14:29:04.293Z,100851.93
2019-03-06T14:31:35.940Z,100835.69
2019-03-06T14:34:07.481Z,100827.73
2019-03-06T14:36:39.158Z,100835.27
2019-03-06T14:39:28.701Z,100820.27
2019-03-06T14:42:00.763Z,100820.32
2019-03-06T14:44:33.701Z,100827.43
2019-03-06T14:47:06.131Z,100824.38
2019-03-06T14:49:37.880Z,100815.94
2019-03-06T14:52:09.466Z,100806.31
2019-03-06T14:54:42.785Z,100809.76
2019-03-06T14:57:14.681Z,100809.41
2019-03-06T14:59:46.294Z,100799.27
2019-03-06T15:02:17.815Z,100810.30
2019-03-06T15:04:49.539Z,100804.61
2019-03-06T15:07:21.047Z,100815.64
2019-03-06T15:09:54.903Z,100807.28
2019-03-06T15:12:27.688Z,100808.59
2019-03-06T15:14:59.385Z,100799.85
2019-03-06T15:17:31.174Z,100790.70
2019-03-06T15:20:02.865Z,100795.07
2019-03-06T15:22:38.659Z,100794.17
2019-03-06T15:25:11.549Z,100794.16
2019-03-06T15:27:43.256Z,100796.84
2019-03-06T15:30:16.235Z,100791.15
2019-03-06T15:32:48.035Z,100790.28
2019-03-06T15:35:19.808Z,100783.73
2019-03-06T15:37:51.460Z,100785.03
2019-03-06T15:40:25.081Z,100791.62
2019-03-06T15:42:57.154Z,100782.41
2019-03-06T15:45:32.816Z,100774.53
2019-03-06T15:48:04.821Z,100771.47
2019-03-06T15:50:36.977Z,100774.09
2019-03-06T15:53:09.295Z,100771.90
2019-03-06T15:55:42.695Z,100768.83
2019-03-06T15:58:14.639Z,100770.98
2019-03-06T16:00:46.832Z,100756.56
2019-03-06T16:03:18.468Z,100761.80
2019-03-06T16:05:50.157Z,100761.36
2019-03-06T16:08:22.230Z,100760.05
2019-03-06T16:10:54.678Z,100749.56
2019-03-06T16:13:26.715Z,100752.17
2019-03-06T16:15:58.352Z,100750.86
2019-03-06T16:18:30.009Z,100744.28
2019-03-06T16:21:01.891Z,100736.84
2019-03-06T16:23:34.337Z,100729.86
2019-03-06T16:26:06.556Z,100735.09
2019-03-06T16:28:38.029Z,100725.02
2019-03-06T16:31:10.776Z,100732.89
2019-03-06T16:33:42.903Z,100728.48
2019-03-06T16:36:14.660Z,100724.54
2019-03-06T16:38:46.601Z,100720.16
2019-03-06T16:41:18.386Z,100717.09
2019-03-06T16:43:49.990Z,100717.09
2019-03-06T16:46:22.037Z,100708.79
2019-03-06T16:48:53.868Z,100703.94
2019-03-06T16:51:25.704Z,100709.19
2019-03-06T16:53:57.607Z,100710.05
2019-03-06T16:56:29.424Z,100712.22
2019-03-06T16:59:01.155Z,100711.74
2019-03-06T17:01:32.884Z,100707.78
2019-03-06T17:04:05.785Z,100710.84
2019-03-06T17:06:37.373Z,100703.86
2019-03-06T17:09:09.329Z,100699.03
2019-03-06T17:11:41.319Z,100706.02
2019-03-06T17:14:12.924Z,100710.86
2019-03-06T17:16:45.061Z,100699.36
2019-03-06T17:19:16.579Z,100707.64
2019-03-06T17:21:49.865Z,100701.55
2019-03-06T17:24:22.841Z,100695.03
2019-03-06T17:26:54.755Z,100694.58
2019-03-06T17:29:26.351Z,100706.30
2019-03-06T17:31:57.729Z,100705.38
2019-03-06T17:34:29.499Z,100707.05
2019-03-06T17:37:01.408Z,100699.72
2019-03-06T17:39:33.570Z,100697.84
2019-03-06T17:42:05.357Z,100693.95
2019-03-06T17:44:36.024Z,100695.69
2019-03-06T17:47:08.267Z,100697.84
2019-03-06T17:49:40.028Z,100701.30
2019-03-06T17:52:11.844Z,100691.72
2019-03-06T17:54:43.470Z,100693.48
2019-03-06T17:57:15.293Z,100696.49
2019-03-06T17:59:46.988Z,100691.59
2019-03-06T18:02:18.870Z,100687.71
2019-03-06T18:04:52.276Z,100686.32
2019-03-06T18:07:23.951Z,100683.19
2019-03-06T18:09:55.842Z,100683.24
2019-03-06T18:12:27.486Z,100691.52
2019-03-06T18:14:59.153Z,100687.12
2019-03-06T18:17:31.050Z,100689.73
2019-03-06T18:20:02.800Z,100690.11
2019-03-06T18:22:34.651Z,100684.41
2019-03-06T18:25:07.954Z,100673.09
2019-03-06T18:27:39.431Z,100677.48
2019-03-06T18:30:13.586Z,100677.95
2019-03-06T18:32:45.493Z,100676.17
2019-03-06T18:35:17.465Z,100660.44
2019-03-06T18:37:49.136Z,100664.27
2019-03-06T18:40:21.111Z,100648.28
2019-03-06T18:42:54.772Z,100635.53
2019-03-06T18:45:26.605Z,100630.77
2019-03-06T18:47:58.362Z,100622.45
2019-03-06T18:50:30.004Z,100610.26
2019-03-06T18:53:01.776Z,100611.14
2019-03-06T18:55:33.669Z,100606.75
2019-03-06T18:58:05.174Z,100597.55
2019-03-06T19:00:37.354Z,100587.97
2019-03-06T19:03:10.305Z,100588.81
2019-03-06T19:05:42.043Z,100582.66
2019-03-06T19:08:13.725Z,100577.84
2019-03-06T19:10:45.738Z,100579.95
2019-03-06T19:13:17.876Z,100573.92
2019-03-06T19:15:49.638Z,100578.22
2019-03-06T19:18:22.370Z,100576.91
2019-03-06T19:20:54.090Z,100583.41
2019-03-06T19:23:25.758Z,100592.55
2019-03-06T19:25:58.077Z,100592.14
2019-03-06T19:28:29.929Z,100578.18
2019-03-06T19:31:01.792Z,100581.30
2019-03-06T19:33:33.721Z,100580.74
2019-03-06T19:36:06.058Z,100576.41
2019-03-06T19:38:37.905Z,100568.51
2019-03-06T19:41:09.641Z,100556.80
2019-03-06T19:43:40.959Z,100552.87
2019-03-06T19:46:14.238Z,100551.22
2019-03-06T19:48:45.870Z,100548.53
2019-03-06T19:51:17.505Z,100537.59
2019-03-06T19:53:49.268Z,100539.80
2019-03-06T19:56:20.912Z,100529.80
2019-03-06T19:58:52.765Z,100528.45
2019-03-06T20:01:24.685Z,100533.72
2019-03-06T20:03:56.410Z,100526.25
2019-03-06T20:06:28.286Z,100524.94
2019-03-06T20:09:00.380Z,100520.56
2019-03-06T20:11:33.657Z,100517.98
2019-03-06T20:14:05.295Z,100508.34
2019-03-06T20:16:37.111Z,100502.64
2019-03-06T20:19:08.967Z,100495.68
2019-03-06T20:21:41.122Z,100487.38
2019-03-06T20:24:13.248Z,100504.78
2019-03-06T20:26:45.140Z,100485.22
2019-03-06T20:29:17.091Z,100481.17
2019-03-06T20:31:48.811Z,100485.18
2019-03-06T20:34:20.982Z,100475.56
2019-03-06T20:36:53.357Z,100469.87
2019-03-06T20:39:25.093Z,100464.22
2019-03-06T20:41:56.915Z,100468.09
2019-03-06T20:44:28.473Z,100458.06
2019-03-06T20:47:01.178Z,100452.80
2019-03-06T20:49:33.295Z,100451.07
2019-03-06T20:52:04.985Z,100456.71
2019-03-06T20:54:36.865Z,100456.67
2019-03-06T20:57:08.796Z,100459.74
2019-03-06T20:59:44.092Z,100457.45
2019-03-06T21:02:16.013Z,100447.05
2019-03-06T21:04:47.623Z,100439.69
2019-03-06T21:07:19.348Z,100440.48
2019-03-06T21:09:51.493Z,100432.69
2019-03-06T21:12:23.066Z,100440.84
2019-03-06T21:14:54.920Z,100423.45
2019-03-06T21:17:26.655Z,100426.06
2019-03-06T21:19:58.435Z,100420.80
2019-03-06T21:22:31.680Z,100419.53
2019-03-06T21:25:03.414Z,100422.08
2019-03-06T21:27:35.389Z,100412.53
2019-03-06T21:30:09.371Z,100405.53
2019-03-06T21:32:42.295Z,100408.98
2019-03-06T21:35:14.924Z,100413.80
2019-03-06T21:37:46.797Z,100413.33
2019-03-06T21:40:19.003Z,100399.84
2019-03-06T21:42:51.417Z,100408.09
2019-03-06T21:45:23.163Z,100399.42
2019-03-06T21:47:54.784Z,100400.27
2019-03-06T21:50:26.214Z,100388.14
2019-03-06T21:52:59.440Z,100386.37
2019-03-06T21:55:31.389Z,100380.68
2019-03-06T21:58:03.206Z,100378.53
2019-03-06T22:00:35.175Z,100378.06
2019-03-06T22:03:07.018Z,100373.27
2019-03-06T22:05:38.784Z,100366.69
2019-03-06T22:08:11.310Z,100361.97
2019-03-06T22:10:43.302Z,100358.43
2019-03-06T22:13:14.705Z,100361.05
2019-03-06T22:15:46.584Z,100342.86
2019-03-06T22:18:19.027Z,100351.48
2019-03-06T22:20:50.652Z,100341.08
2019-03-06T22:23:22.297Z,100353.20
2019-03-06T22:25:54.007Z,100331.94
2019-03-06T22:28:25.549Z,100329.33
2019-03-06T22:30:57.267Z,100327.55
2019-03-06T22:33:29.384Z,100329.75
2019-03-06T22:36:02.111Z,100328.87
2019-03-06T22:38:33.836Z,100317.11
2019-03-06T22:41:05.949Z,100318.84
2019-03-06T22:43:37.732Z,100316.27
2019-03-06T22:46:09.463Z,100306.67
2019-03-06T22:48:40.998Z,100299.69
2019-03-06T22:51:12.866Z,100294.92
2019-03-06T22:53:44.619Z,100298.84
2019-03-06T22:56:16.304Z,100295.73
2019-03-06T22:58:48.159Z,100283.09
2019-03-06T23:01:34.153Z,100278.83
2019-03-06T23:04:06.636Z,100277.95
2019-03-06T23:06:38.395Z,100277.48
2019-03-06T23:09:12.075Z,100278.80
2019-03-06T23:11:44.251Z,100272.61
2019-03-06T23:14:17.140Z,100265.31
2019-03-06T23:16:48.830Z,100263.59
2019-03-06T23:19:20.517Z,100254.06
2019-03-06T23:21:53.806Z,100253.61
2019-03-06T23:24:25.219Z,100249.33
2019-03-06T23:26:57.490Z,100240.55
2019-03-06T23:29:29.189Z,100237.97
2019-03-06T23:32:00.950Z,100232.29
2019-03-06T23:34:32.502Z,100232.71
2019-03-06T23:37:05.637Z,100229.64
2019-03-06T23:39:37.267Z,100227.91
2019-03-06T23:42:07.896Z,100221.81
2019-03-06T23:44:38.285Z,100216.59
2019-03-06T23:47:08.894Z,100213.52
2019-03-06T23:49:39.109Z,100207.42
2019-03-06T23:52:11.105Z,100213.06
2019-03-06T23:54:41.515Z,100205.23
2019-03-06T23:57:11.706Z,100199.98
2019-03-06T23:59:42.932Z,100191.30
